Time;durP1;ratioP1;P1;durP2;ratioP2;P2;SDS_P1;SDS_P2;PMS_P1;PMS_P2;Temp;Humidity;BMP_temperature;BMP_pressure;BME280_temperature;BME280_humidity;BME280_pressure;Samples;Min_cycle;Max_cycle;Signal;HPM_P1;HPM_P2
2023/01/13 00:00:22;;;;;;;23.13;6.40;;;10.40;99.90;;;;;;4986989;23;20114;-89
2023/01/13 00:02:57;;;;;;;15.80;4.47;;;10.50;99.90;;;;;;4997066;28;20057;-89
2023/01/13 00:05:40;;;;;;;15.30;3.90;;;8.70;99.90;;;;;;5015057;28;20078;-89
2023/01/13 00:08:17;;;;;;;22.30;5.25;;;7.70;99.90;;;;;;5000724;28;20053;-90
2023/01/13 00:10:55;;;;;;;22.43;5.97;;;9.40;99.90;;;;;;5014171;28;20042;-89
2023/01/13 00:13:34;;;;;;;19.80;4.50;;;9.90;99.90;;;;;;4996202;28;20053;-88
2023/01/13 00:16:21;;;;;;;22.60;5.47;;;8.00;99.90;;;;;;4999316;28;20042;-89
2023/01/13 00:18:55;;;;;;;20.50;4.50;;;8.50;99.90;;;;;;5076137;23;20447;-90
2023/01/13 00:21:36;;;;;;;23.00;4.97;;;9.00;99.90;;;;;;4978335;28;20066;-90
2023/01/13 00:24:11;;;;;;;28.53;5.47;;;6.60;99.90;;;;;;4971595;28;20050;-89
2023/01/13 00:26:46;;;;;;;28.10;6.10;;;9.50;99.90;;;;;;4978466;28;20043;-89
2023/01/13 00:32:53;;;;;;;23.93;4.20;;;8.30;99.90;;;;;;5019093;23;20055;-89
2023/01/13 00:36:09;;;;;;;28.80;7.03;;;7.90;99.90;;;;;;4980876;28;20054;-88
2023/01/13 00:38:38;;;;;;;20.73;5.47;;;8.00;99.90;;;;;;4974526;28;20050;-90
2023/01/13 00:41:18;;;;;;;22.63;4.70;;;9.70;99.90;;;;;;4997440;28;20085;-89
2023/01/13 00:43:45;;;;;;;17.53;3.67;;;8.00;99.90;;;;;;4980435;28;20050;-88
2023/01/13 00:46:23;;;;;;;18.60;4.80;;;9.40;99.90;;;;;;4998482;28;20113;-89
2023/01/13 00:48:51;;;;;;;22.53;4.03;;;8.30;99.90;;;;;;4998724;28;20454;-89
2023/01/13 00:52:06;;;;;;;19.90;3.53;;;9.00;99.90;;;;;;4997813;28;20073;-89
2023/01/13 00:55:22;;;;;;;23.20;3.67;;;7.90;99.90;;;;;;4997971;28;20046;-88
2023/01/13 00:58:39;;;;;;;24.60;3.77;;;8.00;99.90;;;;;;4981034;28;20058;-89
2023/01/13 01:01:56;;;;;;;19.80;3.60;;;8.00;99.90;;;;;;5003296;28;20073;-88
2023/01/13 01:05:35;;;;;;;16.77;3.47;;;8.60;99.90;;;;;;4980949;28;20050;-89
2023/01/13 01:08:44;;;;;;;21.77;3.47;;;8.70;99.90;;;;;;4979336;28;20121;-88
2023/01/13 01:11:48;;;;;;;23.97;4.10;;;8.10;99.90;;;;;;4980503;28;20394;-88
2023/01/13 01:14:13;;;;;;;21.33;4.17;;;7.30;99.90;;;;;;4957012;28;20137;-88
2023/01/13 01:16:54;;;;;;;26.80;4.10;;;9.30;99.90;;;;;;4998399;28;20078;-88
2023/01/13 01:20:00;;;;;;;17.73;3.20;;;6.70;99.90;;;;;;4997681;28;20130;-89
2023/01/13 01:22:50;;;;;;;19.87;3.80;;;7.90;99.90;;;;;;4980298;28;20085;-89
2023/01/13 01:25:25;;;;;;;21.93;4.97;;;7.90;99.90;;;;;;4980220;28;20043;-88
2023/01/13 01:28:03;;;;;;;22.37;3.80;;;9.30;99.90;;;;;;4980245;28;20078;-89
2023/01/13 01:30:44;;;;;;;18.80;3.90;;;7.70;99.90;;;;;;4980702;28;20038;-88
2023/01/13 01:33:36;;;;;;;19.77;4.10;;;7.00;99.90;;;;;;4980579;28;20073;-88
2023/01/13 01:36:10;;;;;;;22.83;4.20;;;7.90;99.90;;;;;;4999521;28;20479;-90
2023/01/13 01:38:51;;;;;;;20.90;4.10;;;8.00;99.90;;;;;;4980704;28;20046;-89
2023/01/13 01:41:37;;;;;;;23.53;4.17;;;9.20;99.90;;;;;;4980190;28;20054;-88
2023/01/13 01:44:53;;;;;;;20.33;4.07;;;8.00;99.90;;;;;;4983664;28;20061;-88
2023/01/13 01:47:34;;;;;;;25.47;4.33;;;8.40;99.90;;;;;;4998290;28;20129;-88
2023/01/13 01:50:23;;;;;;;20.70;4.03;;;6.90;99.90;;;;;;4980311;28;20058;-88
2023/01/13 01:53:13;;;;;;;25.60;4.10;;;8.10;99.90;;;;;;4988574;28;20061;-88
2023/01/13 01:55:50;;;;;;;22.57;3.87;;;7.50;99.90;;;;;;4995839;23;20420;-89
2023/01/13 01:58:38;;;;;;;19.37;3.73;;;9.60;99.90;;;;;;4979490;28;20233;-88
2023/01/13 02:01:22;;;;;;;27.00;5.43;;;9.10;99.90;;;;;;4979806;28;20089;-89
2023/01/13 02:04:13;;;;;;;23.13;4.72;;;8.00;99.90;;;;;;4979183;28;20035;-88
2023/01/13 02:06:39;;;;;;;23.47;4.57;;;6.80;99.90;;;;;;4978073;28;20557;-89
2023/01/13 02:09:16;;;;;;;22.37;3.93;;;7.10;99.90;;;;;;4993461;28;20121;-88
2023/01/13 02:15:21;;;;;;;28.57;4.70;;;7.50;99.90;;;;;;4994812;28;20053;-88
2023/01/13 02:18:42;;;;;;;19.77;4.37;;;7.90;99.90;;;;;;4994027;28;20053;-88
2023/01/13 02:21:46;;;;;;;28.17;4.23;;;7.20;99.90;;;;;;4994796;28;20121;-88
2023/01/13 02:25:02;;;;;;;28.07;5.47;;;8.70;99.90;;;;;;4976149;28;20046;-87
2023/01/13 02:28:21;;;;;;;26.00;4.30;;;7.60;99.90;;;;;;4994470;28;20046;-87
2023/01/13 02:34:29;;;;;;;27.27;4.63;;;8.00;99.90;;;;;;4899817;29;20107;-88
2023/01/13 02:37:30;;;;;;;27.73;4.90;;;7.90;99.90;;;;;;4915233;29;20064;-88
2023/01/13 02:40:02;;;;;;;24.60;4.67;;;6.90;99.90;;;;;;4994410;28;20177;-88
2023/01/13 02:46:47;;;;;;;25.70;4.40;;;7.30;99.90;;;;;;4963738;23;20042;-87
2023/01/13 02:49:41;;;;;;;25.90;5.17;;;7.20;99.90;;;;;;4993909;28;20135;-87
2023/01/13 02:52:24;;;;;;;23.33;4.97;;;7.40;99.90;;;;;;4975153;28;20038;-87
2023/01/13 02:55:11;;;;;;;23.75;5.20;;;7.40;99.90;;;;;;4976638;28;20047;-87
2023/01/13 02:57:49;;;;;;;24.03;4.60;;;9.20;99.90;;;;;;4980638;28;20058;-88
2023/01/13 03:00:17;;;;;;;24.00;4.70;;;7.30;99.90;;;;;;5000932;28;20105;-88
2023/01/13 03:02:43;;;;;;;20.37;4.23;;;7.40;99.90;;;;;;4989922;28;20034;-87
2023/01/13 03:05:57;;;;;;;24.87;4.77;;;7.40;99.90;;;;;;4984789;28;20077;-87
2023/01/13 03:08:48;;;;;;;22.83;4.63;;;7.30;99.90;;;;;;4976171;28;20051;-87
2023/01/13 03:11:17;;;;;;;28.73;4.77;;;7.40;99.90;;;;;;4976758;28;20076;-87
2023/01/13 03:14:27;;;;;;;24.70;5.13;;;7.90;99.90;;;;;;4976115;28;20086;-88
2023/01/13 03:17:17;;;;;;;21.73;4.17;;;7.30;99.90;;;;;;4976402;28;20050;-88
2023/01/13 03:20:34;;;;;;;25.13;4.10;;;6.80;99.90;;;;;;4980100;28;20026;-87
2023/01/13 03:23:26;;;;;;;21.97;5.50;;;7.30;99.90;;;;;;5003027;28;20054;-88
2023/01/13 03:26:37;;;;;;;25.87;4.90;;;6.60;99.90;;;;;;4976708;28;20046;-88
2023/01/13 03:29:21;;;;;;;27.07;4.67;;;7.60;99.90;;;;;;4899437;29;20057;-87
2023/01/13 03:32:14;;;;;;;26.58;4.20;;;7.50;99.90;;;;;;4880850;29;20557;-88
2023/01/13 03:34:50;;;;;;;23.50;4.80;;;7.60;99.90;;;;;;4898222;29;20112;-88
2023/01/13 03:37:35;;;;;;;23.87;4.50;;;7.20;99.90;;;;;;4881281;29;20048;-88
2023/01/13 03:40:21;;;;;;;22.43;4.30;;;6.80;99.90;;;;;;4952902;28;20411;-88
2023/01/13 03:50:21;;;;;;;27.20;5.50;;;7.40;99.90;;;;;;4923958;23;20043;-88
2023/01/13 03:53:26;;;;;;;;;;;;;;;;;;;;;
2023/01/13 03:56:29;;;;;;;21.30;4.07;;;7.20;99.90;;;;;;4981498;23;20054;-88
2023/01/13 03:59:17;;;;;;;27.13;4.60;;;7.80;99.90;;;;;;4981683;28;20070;-88
2023/01/13 04:02:26;;;;;;;29.23;5.00;;;7.70;99.90;;;;;;4969129;28;20055;-88
2023/01/13 04:05:11;;;;;;;26.43;4.97;;;7.70;99.90;;;;;;4959565;28;20474;-88
2023/01/13 04:08:30;;;;;;;23.80;5.13;;;9.00;99.90;;;;;;4977885;28;20065;-88
2023/01/13 04:11:19;;;;;;;25.40;5.27;;;7.60;99.90;;;;;;4971937;28;20047;-87
2023/01/13 04:14:00;;;;;;;28.50;4.53;;;7.30;99.90;;;;;;4960264;28;20475;-87
2023/01/13 04:16:25;;;;;;;33.57;5.67;;;7.60;99.90;;;;;;4976848;28;20045;-87
2023/01/13 04:19:06;;;;;;;20.67;4.87;;;7.60;99.90;;;;;;4977217;28;20046;-87
2023/01/13 04:21:44;;;;;;;24.10;5.33;;;9.20;99.90;;;;;;4959553;28;20065;-87
2023/01/13 04:24:43;;;;;;;28.40;5.37;;;9.20;99.90;;;;;;4958929;28;20558;-88
2023/01/13 04:27:09;;;;;;;23.73;4.57;;;7.80;99.90;;;;;;4959196;28;20046;-88
2023/01/13 04:29:38;;;;;;;31.23;5.10;;;8.90;99.90;;;;;;4959991;28;20043;-88
2023/01/13 04:32:04;;;;;;;27.10;5.10;;;7.10;99.90;;;;;;4976090;28;20406;-88
2023/01/13 04:34:44;;;;;;;24.87;4.87;;;7.40;99.90;;;;;;4981912;28;20086;-88
2023/01/13 04:37:18;;;;;;;22.90;4.77;;;8.40;99.90;;;;;;4976401;28;20082;-88
2023/01/13 04:40:02;;;;;;;24.63;4.83;;;7.60;99.90;;;;;;4959481;28;20514;-87
2023/01/13 04:42:28;;;;;;;27.42;4.95;;;7.50;99.90;;;;;;4977864;28;20403;-87
2023/01/13 04:45:12;;;;;;;25.80;3.87;;;7.70;99.90;;;;;;4942716;28;20051;-88
2023/01/13 04:47:40;;;;;;;30.93;5.60;;;8.70;99.90;;;;;;4976960;28;20054;-87
2023/01/13 04:50:24;;;;;;;22.67;4.47;;;7.70;99.90;;;;;;4958581;28;20058;-87
2023/01/13 04:53:00;;;;;;;27.37;5.47;;;8.40;99.90;;;;;;4975708;28;20430;-87
2023/01/13 04:58:35;;;;;;;28.35;4.97;;;7.60;99.90;;;;;;4976442;28;20392;-88
2023/01/13 05:01:20;;;;;;;23.20;4.60;;;9.30;99.90;;;;;;4958836;28;20050;-87
2023/01/13 05:03:45;;;;;;;26.13;4.63;;;7.80;99.90;;;;;;4951628;28;20051;-88
2023/01/13 05:06:23;;;;;;;24.37;4.10;;;8.60;99.90;;;;;;4959131;28;20047;-88
2023/01/13 05:08:49;;;;;;;28.73;5.00;;;9.00;99.90;;;;;;4976268;28;20038;-88
2023/01/13 05:17:49;;;;;;;25.40;5.17;;;7.10;99.90;;;;;;5035469;23;20106;-87
2023/01/13 05:20:27;;;;;;;25.50;4.57;;;9.00;99.90;;;;;;4998137;28;20054;-87
2023/01/13 05:26:08;;;;;;;20.23;4.23;;;8.00;99.90;;;;;;5014983;28;20050;-86
2023/01/13 05:28:46;;;;;;;24.33;4.27;;;7.60;99.90;;;;;;5015884;28;20456;-86
2023/01/13 05:31:13;;;;;;;24.30;4.67;;;9.30;99.90;;;;;;5017219;28;20437;-86
2023/01/13 05:34:43;;;;;;;25.00;4.47;;;9.00;99.90;;;;;;5035948;23;20502;-86
2023/01/13 05:38:15;;;;;;;19.87;4.00;;;7.70;99.90;;;;;;4998093;28;20117;-88
2023/01/13 05:44:40;;;;;;;20.52;3.70;;;7.70;99.90;;;;;;4998271;28;20050;-86
2023/01/13 05:47:19;;;;;;;18.67;4.03;;;6.10;99.90;;;;;;5001394;28;20110;-87
2023/01/13 05:49:56;;;;;;;14.90;3.47;;;7.50;99.90;;;;;;4978001;28;20150;-88
2023/01/13 05:52:55;;;;;;;17.57;3.73;;;7.30;99.90;;;;;;4995079;28;20053;-88
2023/01/13 05:55:41;;;;;;;24.77;4.73;;;8.00;99.90;;;;;;4976734;28;20068;-87
2023/01/13 05:58:24;;;;;;;21.50;3.73;;;8.20;99.90;;;;;;4994846;28;20486;-87
2023/01/13 06:00:59;;;;;;;21.37;4.03;;;9.00;99.90;;;;;;4977581;28;20402;-88
2023/01/13 06:03:24;;;;;;;25.60;4.30;;;9.00;99.90;;;;;;4976491;28;20034;-87
2023/01/13 06:06:07;;;;;;;22.13;4.07;;;8.50;99.90;;;;;;4977252;28;20527;-88
2023/01/13 06:08:33;;;;;;;21.93;4.20;;;7.60;99.90;;;;;;4976773;28;20356;-88
2023/01/13 06:11:04;;;;;;;22.07;4.03;;;9.40;99.90;;;;;;4977506;28;20097;-88
2023/01/13 06:13:48;;;;;;;20.57;3.90;;;7.80;99.90;;;;;;4994330;28;20090;-87
2023/01/13 06:16:14;;;;;;;20.92;4.13;;;7.30;99.90;;;;;;4976240;28;20050;-88
2023/01/13 06:18:40;;;;;;;24.30;4.13;;;7.20;99.90;;;;;;4977314;28;20057;-87
2023/01/13 06:21:05;;;;;;;15.30;4.07;;;9.30;99.90;;;;;;4999298;28;20053;-87
2023/01/13 06:23:37;;;;;;;20.70;3.83;;;7.40;99.90;;;;;;4979896;28;20050;-87
2023/01/13 06:26:07;;;;;;;20.30;3.93;;;7.50;99.90;;;;;;4977130;28;20077;-87
2023/01/13 06:28:38;;;;;;;17.97;3.80;;;9.40;99.90;;;;;;4993907;28;20489;-87
2023/01/13 06:31:18;;;;;;;17.83;3.60;;;7.30;99.90;;;;;;4997719;28;20057;-87
2023/01/13 06:34:09;;;;;;;16.23;3.90;;;7.50;99.90;;;;;;4993565;28;20089;-87
2023/01/13 06:36:55;;;;;;;17.20;3.63;;;7.60;99.90;;;;;;5011291;28;20816;-87
2023/01/13 06:39:24;;;;;;;14.50;2.93;;;7.80;99.90;;;;;;5014911;28;20095;-87
2023/01/13 06:45:11;;;;;;;17.33;3.17;;;7.10;99.90;;;;;;4995321;28;20399;-87
2023/01/13 06:47:37;;;;;;;20.73;3.73;;;9.40;99.90;;;;;;4995496;28;20064;-87
2023/01/13 06:50:18;;;;;;;18.50;3.47;;;8.50;99.90;;;;;;4996604;28;20128;-87
2023/01/13 06:52:44;;;;;;;14.43;3.77;;;9.00;99.90;;;;;;5013370;28;20046;-87
2023/01/13 06:55:18;;;;;;;13.00;4.10;;;7.50;99.90;;;;;;4996047;28;20490;-86
2023/01/13 06:57:59;;;;;;;16.83;4.77;;;7.30;99.90;;;;;;5024236;28;20065;-87
2023/01/13 07:00:41;;;;;;;13.93;2.90;;;7.60;99.90;;;;;;4996118;28;20508;-86
2023/01/13 07:03:08;;;;;;;16.77;6.00;;;7.80;99.90;;;;;;4996315;28;20046;-87
2023/01/13 07:05:52;;;;;;;13.17;3.27;;;9.30;99.90;;;;;;5012962;28;20041;-87
2023/01/13 07:08:27;;;;;;;16.27;4.80;;;7.60;99.90;;;;;;4995424;28;20088;-87
2023/01/13 07:10:53;;;;;;;18.97;5.93;;;8.00;99.90;;;;;;5013234;28;20281;-86
2023/01/13 07:16:13;;;;;;;14.27;3.08;;;7.60;99.90;;;;;;4996250;28;20046;-87
2023/01/13 07:18:44;;;;;;;15.03;3.23;;;8.40;99.90;;;;;;4995273;28;20512;-91
2023/01/13 07:21:17;;;;;;;12.03;2.50;;;9.10;99.90;;;;;;5013540;28;20046;-87
2023/01/13 07:23:43;;;;;;;17.20;2.93;;;8.40;99.90;;;;;;4995786;28;20414;-84
2023/01/13 07:26:12;;;;;;;16.40;2.80;;;7.60;99.90;;;;;;5011416;28;20050;-83
2023/01/13 07:28:39;;;;;;;17.30;2.80;;;9.00;99.90;;;;;;5012839;28;20053;-84
2023/01/13 07:31:17;;;;;;;19.33;3.00;;;8.20;99.90;;;;;;4995297;28;20181;-85
2023/01/13 07:33:43;;;;;;;13.70;2.70;;;8.00;99.90;;;;;;5005074;28;20057;-84
2023/01/13 07:36:34;;;;;;;16.50;3.23;;;7.30;99.90;;;;;;4995983;23;20081;-84
2023/01/13 07:39:00;;;;;;;14.60;2.80;;;7.50;99.90;;;;;;4968833;28;20498;-83
2023/01/13 07:44:10;;;;;;;15.90;3.27;;;7.60;99.90;;;;;;4973751;28;20055;-83
2023/01/13 07:46:36;;;;;;;16.70;2.90;;;7.60;99.90;;;;;;4955893;28;20055;-83
2023/01/13 07:49:03;;;;;;;14.77;2.63;;;7.60;99.90;;;;;;4956049;28;20502;-83
2023/01/13 07:51:30;;;;;;;14.67;2.93;;;8.90;99.90;;;;;;4955758;28;20483;-83
2023/01/13 07:53:55;;;;;;;13.93;2.90;;;7.60;99.90;;;;;;4973301;28;20047;-82
2023/01/13 07:56:23;;;;;;;15.47;2.60;;;7.60;99.90;;;;;;4956027;28;20035;-82
2023/01/13 07:58:52;;;;;;;12.33;2.67;;;7.70;99.90;;;;;;4973954;28;20402;-82
2023/01/13 08:01:19;;;;;;;17.43;3.53;;;7.70;99.90;;;;;;4972769;28;20039;-82
2023/01/13 08:03:45;;;;;;;13.33;2.73;;;8.90;99.90;;;;;;4955891;28;20133;-82
2023/01/13 08:06:11;;;;;;;17.07;2.87;;;7.70;99.90;;;;;;4973756;28;20148;-82
2023/01/13 08:08:37;;;;;;;16.37;3.00;;;7.60;99.90;;;;;;4964502;28;20043;-82
2023/01/13 08:11:05;;;;;;;15.23;3.33;;;9.20;99.90;;;;;;4962361;28;20487;-83
2023/01/13 08:13:31;;;;;;;17.97;3.57;;;7.60;99.90;;;;;;4955352;28;20113;-82
2023/01/13 08:16:05;;;;;;;15.73;2.90;;;7.60;99.90;;;;;;4957777;28;20495;-82
2023/01/13 08:18:31;;;;;;;;;;;7.50;99.90;;;;;;4973379;28;20550;-82
2023/01/13 08:21:01;;;;;;;15.07;3.53;;;7.40;99.90;;;;;;4973570;28;19922;-83
2023/01/13 08:23:27;;;;;;;16.47;3.23;;;7.40;99.90;;;;;;4972254;28;20376;-82
2023/01/13 08:25:53;;;;;;;16.20;2.87;;;7.40;99.90;;;;;;4973328;28;20050;-83
2023/01/13 08:28:19;;;;;;;15.27;3.10;;;7.70;99.90;;;;;;4973143;28;20074;-82
2023/01/13 08:30:44;;;;;;;15.83;3.07;;;7.30;99.90;;;;;;4955732;28;20086;-83
2023/01/13 08:33:17;;;;;;;16.27;3.00;;;9.10;99.90;;;;;;4955494;28;20097;-83
2023/01/13 08:35:43;;;;;;;17.55;3.13;;;7.40;99.90;;;;;;4960037;28;20438;-83
2023/01/13 08:38:18;;;;;;;20.87;3.60;;;8.10;99.90;;;;;;4974004;28;20050;-83
2023/01/13 08:40:44;;;;;;;22.10;3.87;;;7.20;99.90;;;;;;4971885;28;20078;-83
2023/01/13 08:43:19;;;;;;;17.77;3.70;;;7.20;99.90;;;;;;4974028;28;20073;-83
2023/01/13 08:45:59;;;;;;;16.70;3.13;;;7.60;99.90;;;;;;4976287;28;20050;-84
2023/01/13 08:48:43;;;;;;;17.47;3.47;;;8.10;99.90;;;;;;4972721;28;20141;-83
2023/01/13 08:51:24;;;;;;;17.43;3.40;;;8.60;99.90;;;;;;4961014;28;20410;-84
2023/01/13 08:53:50;;;;;;;19.17;3.47;;;6.80;99.90;;;;;;4992976;28;20040;-84
2023/01/13 08:56:34;;;;;;;15.43;2.77;;;6.60;99.90;;;;;;5014710;28;20070;-84
2023/01/13 08:59:12;;;;;;;20.45;3.65;;;6.10;99.90;;;;;;4993379;28;20049;-83
2023/01/13 09:01:41;;;;;;;20.57;2.87;;;7.60;99.90;;;;;;4978815;28;20053;-84
2023/01/13 09:04:23;;;;;;;23.90;3.83;;;7.90;99.90;;;;;;4977525;28;20042;-84
2023/01/13 09:06:50;;;;;;;18.03;3.50;;;7.90;99.90;;;;;;4972523;28;20062;-84
2023/01/13 09:10:00;;;;;;;18.87;3.67;;;6.30;99.90;;;;;;4978000;28;20047;-85
2023/01/13 09:15:22;;;;;;;18.50;4.27;;;8.80;99.90;;;;;;4958718;28;20098;-82
2023/01/13 09:17:48;;;;;;;18.90;3.20;;;7.00;99.90;;;;;;4975935;28;20081;-81
2023/01/13 09:20:14;;;;;;;18.00;5.20;;;7.00;99.90;;;;;;4977670;28;20034;-82
2023/01/13 09:22:40;;;;;;;17.50;4.57;;;7.00;99.90;;;;;;4961042;28;20590;-82
2023/01/13 09:25:06;;;;;;;18.13;4.67;;;7.00;99.90;;;;;;4958036;28;20058;-83
2023/01/13 09:27:31;;;;;;;21.23;4.53;;;7.00;99.90;;;;;;4950766;28;20053;-85
2023/01/13 09:29:57;;;;;;;17.80;3.43;;;7.00;99.90;;;;;;4954877;28;20461;-84
2023/01/13 09:32:23;;;;;;;16.30;3.73;;;7.10;99.90;;;;;;4940394;28;20141;-85
2023/01/13 09:37:36;;;;;;;;;;;7.20;99.90;;;;;;4961300;28;20051;-85
2023/01/13 09:40:21;;;;;;;22.07;7.60;;;8.90;99.90;;;;;;4955255;28;20001;-84
2023/01/13 09:46:43;;;;;;;27.77;12.00;;;7.20;99.90;;;;;;4959001;28;20407;-85
2023/01/13 09:49:31;;;;;;;19.03;5.70;;;7.20;99.90;;;;;;4973519;28;20046;-85
2023/01/13 09:52:20;;;;;;;27.30;7.53;;;7.30;99.90;;;;;;4984823;23;20526;-85
2023/01/13 09:55:14;;;;;;;19.60;4.47;;;6.50;99.90;;;;;;4955946;28;20462;-85
2023/01/13 09:57:40;;;;;;;21.65;3.65;;;7.10;99.90;;;;;;4956228;28;20038;-84
2023/01/13 10:00:19;;;;;;;20.87;5.30;;;8.90;99.90;;;;;;4959465;28;20155;-85
2023/01/13 10:03:01;;;;;;;16.97;3.40;;;7.40;99.90;;;;;;4983427;28;20506;-85
2023/01/13 10:05:55;;;;;;;17.63;3.63;;;7.50;99.90;;;;;;4952097;28;20079;-84
2023/01/13 10:08:31;;;;;;;17.48;3.58;;;7.50;99.90;;;;;;4954132;28;20498;-84
2023/01/13 10:14:33;;;;;;;22.23;4.23;;;7.90;99.90;;;;;;4975332;28;20051;-85
2023/01/13 10:17:20;;;;;;;15.40;2.77;;;7.70;99.90;;;;;;4957513;28;20047;-83
2023/01/13 10:20:39;;;;;;;21.43;3.47;;;7.60;99.90;;;;;;4975126;28;20067;-84
2023/01/13 10:23:46;;;;;;;21.83;3.73;;;8.00;99.90;;;;;;4880191;29;20151;-84
2023/01/13 10:27:02;;;;;;;19.40;3.70;;;7.70;99.90;;;;;;4880232;29;20549;-84
2023/01/13 10:29:30;;;;;;;20.13;3.47;;;7.50;99.90;;;;;;4895248;29;20886;-83
2023/01/13 10:32:13;;;;;;;19.47;3.77;;;9.10;99.90;;;;;;4883719;29;20076;-84
2023/01/13 10:35:01;;;;;;;19.27;8.15;;;7.90;99.90;;;;;;4884755;29;20075;-84
2023/01/13 10:37:27;;;;;;;23.33;7.00;;;7.60;99.90;;;;;;4879531;29;20052;-84
2023/01/13 10:40:00;;;;;;;19.87;4.00;;;6.40;99.90;;;;;;4923085;28;20055;-84
2023/01/13 10:42:26;;;;;;;18.55;3.95;;;7.00;99.90;;;;;;4956915;28;20080;-84
2023/01/13 10:45:02;;;;;;;17.20;3.90;;;7.10;99.90;;;;;;4969556;28;20070;-84
2023/01/13 10:47:35;;;;;;;17.83;3.70;;;9.00;99.90;;;;;;4974163;28;20113;-84
2023/01/13 10:50:09;;;;;;;13.82;4.72;;;7.30;99.90;;;;;;4973861;28;20071;-83
2023/01/13 10:52:41;;;;;;;16.97;4.57;;;7.40;99.90;;;;;;4956951;28;20477;-85
2023/01/13 10:55:33;;;;;;;24.77;5.80;;;7.70;99.90;;;;;;4974523;28;20120;-86
2023/01/13 10:58:31;;;;;;;21.90;4.77;;;7.40;99.90;;;;;;4973911;28;20095;-85
2023/01/13 11:01:04;;;;;;;16.33;3.73;;;7.40;99.90;;;;;;4915108;28;20074;-85
2023/01/13 11:03:35;;;;;;;;;;;7.60;99.90;;;;;;4957012;28;20121;-86
2023/01/13 11:06:01;;;;;;;16.73;3.13;;;7.40;99.90;;;;;;4973970;28;19969;-86
2023/01/13 11:08:30;;;;;;;20.17;4.10;;;7.40;99.90;;;;;;4961747;28;20050;-85
2023/01/13 11:10:58;;;;;;;20.57;4.07;;;7.50;99.90;;;;;;4959373;28;20077;-87
2023/01/13 11:14:31;;;;;;;20.27;4.17;;;6.60;99.90;;;;;;4975242;28;20126;-86
2023/01/13 11:16:45;;;;;;;16.80;3.87;;;7.60;99.90;;;;;;4973493;28;20157;-85
2023/01/13 11:19:26;;;;;;;16.73;3.73;;;7.10;99.90;;;;;;4972970;28;20079;-85
2023/01/13 11:22:16;;;;;;;19.83;3.33;;;6.90;99.90;;;;;;4947914;28;20475;-84
2023/01/13 11:25:03;;;;;;;24.23;4.33;;;7.40;99.90;;;;;;4971685;28;20051;-87
2023/01/13 11:28:19;;;;;;;19.00;3.40;;;8.70;99.90;;;;;;4959384;28;20054;-87
2023/01/13 11:31:13;;;;;;;16.53;3.23;;;7.70;99.90;;;;;;4943857;28;20458;-88
2023/01/13 11:34:10;;;;;;;21.05;3.13;;;7.50;99.90;;;;;;4970992;28;20506;-87
2023/01/13 11:36:58;;;;;;;18.97;3.27;;;7.50;99.90;;;;;;4972850;28;20549;-87
2023/01/13 11:39:49;;;;;;;16.40;3.80;;;9.20;99.90;;;;;;4972898;28;20122;-86
2023/01/13 11:42:33;;;;;;;21.47;4.70;;;7.80;99.90;;;;;;4956563;28;20122;-87
2023/01/13 11:45:17;;;;;;;17.37;3.17;;;7.30;99.90;;;;;;4969190;28;20046;-85
2023/01/13 11:47:47;;;;;;;;;;;7.60;99.90;;;;;;4956154;28;20110;-85
2023/01/13 11:50:50;;;;;;;17.97;3.50;;;8.60;99.90;;;;;;4956069;28;19994;-86
2023/01/13 11:53:24;;;;;;;21.07;3.60;;;7.50;99.90;;;;;;4960818;28;20486;-86
2023/01/13 11:56:10;;;;;;;16.47;3.47;;;7.60;99.90;;;;;;4964407;28;20039;-86
2023/01/13 11:58:54;;;;;;;17.17;3.30;;;7.60;99.90;;;;;;4964567;28;20086;-86
2023/01/13 12:01:23;;;;;;;20.97;4.30;;;7.60;99.90;;;;;;4945278;28;20043;-86
2023/01/13 12:04:16;;;;;;;22.03;3.53;;;7.50;99.90;;;;;;4963500;28;20066;-86
2023/01/13 12:06:44;;;;;;;17.10;3.70;;;7.50;99.90;;;;;;4965500;28;20423;-86
2023/01/13 12:09:20;;;;;;;20.10;3.70;;;7.40;99.90;;;;;;4976242;28;20074;-85
2023/01/13 12:12:20;;;;;;;20.90;3.33;;;7.40;99.90;;;;;;4985239;28;20055;-85
2023/01/13 12:14:59;;;;;;;20.93;3.80;;;7.30;99.90;;;;;;4961627;28;20448;-86
2023/01/13 12:17:32;;;;;;;23.07;4.03;;;7.40;99.90;;;;;;4948624;28;20047;-85
2023/01/13 12:20:07;;;;;;;17.10;3.87;;;7.90;99.90;;;;;;4945975;28;20046;-86
2023/01/13 12:22:34;;;;;;;19.60;3.47;;;7.40;99.90;;;;;;4945026;28;20074;-85
2023/01/13 12:25:25;;;;;;;19.87;3.73;;;7.50;99.90;;;;;;4945502;28;20043;-85
2023/01/13 12:28:18;;;;;;;20.67;3.80;;;7.70;99.90;;;;;;4967835;28;20043;-85
2023/01/13 12:31:01;;;;;;;21.97;4.53;;;7.00;99.90;;;;;;4950882;28;20047;-86
2023/01/13 12:34:19;;;;;;;19.88;3.38;;;9.20;99.90;;;;;;4956306;28;20058;-86
2023/01/13 12:37:15;;;;;;;16.93;3.27;;;7.60;99.90;;;;;;4973376;28;20054;-87
2023/01/13 12:40:22;;;;;;;20.47;4.10;;;7.60;99.90;;;;;;4958361;28;20050;-86
2023/01/13 12:46:17;;;;;;;29.27;8.17;;;7.90;99.90;;;;;;4947088;28;20091;-86
2023/01/13 12:49:10;;;;;;;26.83;10.07;;;9.30;99.90;;;;;;4961907;28;20062;-84
2023/01/13 12:51:51;;;;;;;18.83;5.93;;;8.90;99.90;;;;;;4959804;23;20125;-84
2023/01/13 12:54:38;;;;;;;20.13;4.13;;;6.90;99.90;;;;;;4957021;29;20443;-84
2023/01/13 12:57:25;;;;;;;17.07;4.13;;;7.60;99.90;;;;;;4938644;29;20047;-84
2023/01/13 13:00:06;;;;;;;19.27;6.07;;;8.40;99.90;;;;;;4956438;29;20209;-84
2023/01/13 13:02:42;;;;;;;20.40;5.65;;;9.50;99.90;;;;;;4956596;29;20043;-84
2023/01/13 13:05:23;;;;;;;18.67;4.35;;;8.10;99.90;;;;;;4959679;29;20111;-84
2023/01/13 13:08:23;;;;;;;17.97;4.60;;;7.40;99.90;;;;;;4938243;29;20055;-84
2023/01/13 13:14:54;;;;;;;13.93;3.50;;;7.40;99.90;;;;;;4939612;29;20102;-85
2023/01/13 13:17:35;;;;;;;19.93;4.33;;;7.60;99.90;;;;;;4958362;23;20059;-85
2023/01/13 13:20:02;;;;;;;20.37;4.67;;;7.70;99.90;;;;;;4978029;28;20297;-85
2023/01/13 13:22:43;;;;;;;22.00;6.83;;;7.60;99.90;;;;;;4978824;28;20042;-86
2023/01/13 13:25:25;;;;;;;21.73;7.13;;;9.20;99.90;;;;;;4979199;28;20045;-85
2023/01/13 13:31:41;;;;;;;15.23;4.97;;;7.50;99.90;;;;;;4977790;28;20050;-85
2023/01/13 13:34:56;;;;;;;24.97;7.30;;;7.50;99.90;;;;;;4978830;28;20125;-83
2023/01/13 13:47:00;;;;;;;16.30;3.83;;;7.20;99.90;;;;;;4974328;28;20107;-82
2023/01/13 13:49:41;;;;;;;16.87;2.97;;;8.60;99.90;;;;;;4973134;28;20069;-82
2023/01/13 13:52:09;;;;;;;15.63;2.90;;;7.60;99.90;;;;;;5003174;28;20057;-86
2023/01/13 13:54:54;;;;;;;15.27;2.77;;;8.60;99.90;;;;;;4995615;28;20050;-85
2023/01/13 13:57:41;;;;;;;13.13;3.23;;;7.70;99.90;;;;;;5014509;28;20109;-84
2023/01/13 14:00:29;;;;;;;13.60;2.77;;;7.70;99.90;;;;;;4995889;28;20057;-84
2023/01/13 14:03:20;;;;;;;12.47;2.73;;;9.40;99.90;;;;;;4994270;28;20069;-85
2023/01/13 14:09:53;;;;;;;17.33;3.50;;;9.20;99.90;;;;;;4955872;28;20082;-85
2023/01/13 14:12:37;;;;;;;15.13;5.10;;;7.20;99.90;;;;;;4986014;28;20113;-86
2023/01/13 14:15:03;;;;;;;16.25;4.88;;;8.20;99.90;;;;;;4992510;28;20042;-87
2023/01/13 14:17:35;;;;;;;12.57;3.10;;;7.70;99.90;;;;;;4974285;28;20510;-87
2023/01/13 14:20:08;;;;;;;13.80;2.70;;;6.80;99.90;;;;;;4968323;28;20145;-88
2023/01/13 14:22:52;;;;;;;11.52;3.10;;;7.80;99.90;;;;;;4966004;28;20050;-86
2023/01/13 14:25:47;;;;;;;14.57;3.57;;;9.10;99.90;;;;;;4993107;28;20042;-85
2023/01/13 14:28:32;;;;;;;14.83;3.77;;;7.10;99.90;;;;;;4992809;28;20046;-84
2023/01/13 14:30:58;;;;;;;16.73;4.57;;;7.70;99.90;;;;;;4978059;28;20398;-82
2023/01/13 14:33:48;;;;;;;19.83;5.13;;;9.50;99.90;;;;;;4994352;28;20105;-83
2023/01/13 14:36:30;;;;;;;14.47;3.50;;;7.90;99.90;;;;;;4974541;28;20046;-81
2023/01/13 14:39:02;;;;;;;17.23;3.50;;;8.60;99.90;;;;;;4975525;28;20088;-82
2023/01/13 14:41:41;;;;;;;12.97;3.20;;;7.70;99.90;;;;;;4977111;28;20038;-82
2023/01/13 14:44:24;;;;;;;11.53;2.70;;;7.70;99.90;;;;;;4992404;28;20104;-82
2023/01/13 14:46:50;;;;;;;10.77;2.80;;;7.70;99.90;;;;;;4971164;28;20093;-83
2023/01/13 14:49:26;;;;;;;13.23;3.03;;;7.80;99.90;;;;;;4992017;28;20043;-83
2023/01/13 14:52:12;;;;;;;15.30;4.00;;;7.80;99.90;;;;;;4976081;28;20129;-83
2023/01/13 14:54:41;;;;;;;15.07;2.63;;;7.80;99.90;;;;;;4976193;28;20099;-84
2023/01/13 14:57:48;;;;;;;16.27;2.50;;;7.90;99.90;;;;;;4975747;28;20097;-84
2023/01/13 15:00:14;;;;;;;12.80;3.40;;;7.30;99.90;;;;;;4973848;28;20064;-82
2023/01/13 15:02:57;;;;;;;14.07;3.30;;;8.80;99.90;;;;;;4993024;28;20058;-82
2023/01/13 15:08:30;;;;;;;;;;;7.90;99.90;;;;;;5011350;28;20512;-82
2023/01/13 15:11:19;;;;;;;19.57;3.73;;;8.00;99.90;;;;;;4993923;28;19921;-83
2023/01/13 15:14:08;;;;;;;15.73;3.67;;;8.20;99.90;;;;;;4994201;28;20087;-83
2023/01/13 15:16:43;;;;;;;14.30;3.57;;;7.50;99.90;;;;;;5009899;28;20051;-81
2023/01/13 15:19:09;;;;;;;13.93;2.97;;;8.90;99.90;;;;;;5022094;28;20054;-83
2023/01/13 15:21:40;;;;;;;10.37;2.30;;;8.20;99.90;;;;;;5018996;28;20140;-83
2023/01/13 15:24:06;;;;;;;12.87;2.63;;;8.90;99.90;;;;;;4994466;28;20345;-83
2023/01/13 15:26:43;;;;;;;12.67;2.93;;;8.20;99.90;;;;;;5012242;28;20536;-82
2023/01/13 15:29:24;;;;;;;15.93;2.87;;;8.40;99.90;;;;;;5012918;28;20048;-83